createdAt,value
2022-12-27T00:08:53.660Z,5.22
2022-12-27T00:13:57.814Z,5.73
2022-12-27T00:19:00.263Z,5.60
2022-12-27T00:24:02.808Z,5.57
2022-12-27T00:29:06.607Z,6.13
2022-12-27T00:34:09.794Z,6.63
2022-12-27T00:39:12.643Z,6.47
2022-12-27T00:44:16.530Z,5.77
2022-12-27T00:49:18.955Z,5.63
2022-12-27T00:54:21.477Z,7.13
2022-12-27T00:59:25.306Z,6.53
2022-12-27T01:04:27.801Z,7.13
2022-12-27T01:09:30.255Z,7.43
2022-12-27T01:14:34.094Z,7.72
2022-12-27T01:19:36.722Z,8.13
2022-12-27T01:24:39.235Z,7.72
2022-12-27T01:29:43.054Z,8.02
2022-12-27T01:34:45.836Z,7.97
2022-12-27T01:39:48.316Z,7.95
2022-12-27T01:44:55.225Z,9.13
2022-12-27T01:50:00.584Z,9.30
2022-12-27T01:55:07.873Z,8.60
2022-12-27T02:00:12.688Z,9.32
2022-12-27T02:05:16.010Z,8.00
2022-12-27T02:10:18.961Z,9.02
2022-12-27T02:15:22.675Z,9.50
2022-12-27T02:20:25.814Z,9.00
2022-12-27T02:25:35.091Z,8.43
2022-12-27T02:30:39.291Z,9.85
2022-12-27T02:35:43.671Z,8.45
2022-12-27T02:41:04.740Z,8.90
2022-12-27T02:46:30.718Z,8.98
2022-12-27T02:51:55.445Z,7.20
2022-12-27T02:57:10.609Z,6.50
2022-12-27T03:02:40.180Z,8.32
2022-12-27T03:07:48.060Z,7.65
2022-12-27T03:13:14.238Z,8.10
2022-12-27T03:18:21.311Z,8.02
2022-12-27T03:23:41.875Z,6.80
2022-12-27T03:29:11.056Z,6.57
2022-12-27T03:34:35.698Z,6.47
2022-12-27T03:44:40.862Z,7.18
2022-12-27T03:49:46.892Z,7.90
2022-12-27T03:54:50.551Z,8.68
2022-12-27T03:59:53.394Z,9.10
2022-12-27T04:04:57.177Z,10.23
2022-12-27T04:10:17.087Z,10.32
2022-12-27T04:15:36.872Z,8.98
2022-12-27T04:20:58.489Z,8.93
2022-12-27T04:26:18.286Z,9.95
2022-12-27T04:31:38.203Z,9.60
2022-12-27T04:36:42.065Z,9.00
2022-12-27T04:42:02.030Z,10.65
2022-12-27T04:47:22.115Z,10.80
2022-12-27T04:52:43.027Z,11.95
2022-12-27T04:57:45.432Z,12.65
2022-12-27T05:02:48.137Z,12.80
2022-12-27T05:08:09.825Z,12.20
2022-12-27T05:13:30.156Z,13.30
2022-12-27T05:18:32.681Z,15.75
2022-12-27T05:23:54.105Z,14.50
2022-12-27T05:28:58.107Z,16.35
2022-12-27T05:34:00.713Z,16.20
2022-12-27T05:39:04.868Z,16.10
2022-12-27T05:44:07.832Z,16.75
2022-12-27T05:49:10.322Z,16.85
2022-12-27T05:54:14.199Z,17.52
2022-12-27T05:59:16.727Z,16.45
2022-12-27T06:04:19.205Z,16.73
2022-12-27T06:09:24.237Z,16.75
2022-12-27T06:14:26.798Z,15.32
2022-12-27T06:19:29.220Z,17.07
2022-12-27T06:24:32.919Z,16.33
2022-12-27T06:29:35.425Z,16.98
2022-12-27T06:34:37.880Z,17.20
2022-12-27T06:39:41.662Z,17.40
2022-12-27T06:44:44.125Z,18.67
2022-12-27T06:49:46.568Z,20.40
2022-12-27T06:54:50.368Z,17.38
2022-12-27T06:59:54.287Z,21.85
2022-12-27T07:04:56.774Z,20.25
2022-12-27T07:10:00.687Z,19.75
2022-12-27T07:15:03.133Z,19.88
2022-12-27T07:20:06.267Z,19.05
2022-12-27T07:25:10.402Z,19.08
2022-12-27T07:30:12.994Z,19.45
2022-12-27T07:35:15.521Z,18.75
2022-12-27T07:40:19.340Z,18.52
2022-12-27T07:45:21.818Z,18.70
2022-12-27T07:50:24.285Z,20.83
2022-12-27T07:55:28.169Z,18.48
2022-12-27T08:00:30.616Z,18.60
2022-12-27T08:05:33.063Z,18.25
2022-12-27T08:10:36.811Z,16.95
2022-12-27T08:15:39.783Z,15.90
2022-12-27T08:20:42.260Z,15.00
2022-12-27T08:25:48.964Z,14.20
2022-12-27T08:30:51.786Z,15.40
2022-12-27T08:35:55.156Z,13.80
2022-12-27T08:40:59.059Z,14.40
2022-12-27T08:46:03.015Z,10.00
2022-12-27T08:51:11.907Z,7.55
2022-12-27T08:56:16.795Z,7.53
2022-12-27T09:01:19.508Z,6.32
2022-12-27T09:06:23.043Z,5.60
2022-12-27T09:11:28.039Z,6.72
2022-12-27T09:16:30.772Z,6.85
2022-12-27T09:21:34.147Z,6.43
2022-12-27T09:26:37.991Z,6.30
2022-12-27T09:31:40.492Z,6.00
2022-12-27T09:36:43.053Z,5.78
2022-12-27T09:42:45.857Z,6.33
2022-12-27T09:47:16.197Z,6.22
2022-12-27T09:52:19.880Z,5.10
2022-12-27T09:57:25.340Z,4.47
2022-12-27T10:02:29.245Z,5.28
2022-12-27T10:07:36.788Z,5.13
2022-12-27T10:12:56.983Z,4.63
2022-12-27T10:18:11.055Z,5.10
2022-12-27T10:23:16.889Z,6.30
2022-12-27T10:28:25.568Z,7.28
2022-12-27T10:33:30.103Z,8.40
2022-12-27T10:38:33.444Z,8.98
2022-12-27T10:43:37.828Z,9.93
2022-12-27T10:49:11.321Z,9.18
2022-12-27T10:54:05.256Z,7.90
2022-12-27T10:59:13.050Z,10.32
2022-12-27T11:04:21.138Z,10.63
2022-12-27T11:09:28.822Z,11.23
2022-12-27T11:14:31.355Z,11.18
2022-12-27T11:19:35.207Z,12.07
2022-12-27T11:24:38.017Z,12.40
2022-12-27T11:29:41.389Z,11.93
2022-12-27T11:34:46.727Z,13.05
2022-12-27T11:39:51.890Z,11.95
2022-12-27T11:44:59.212Z,10.98
2022-12-27T11:50:10.863Z,10.75
2022-12-27T11:55:29.089Z,9.25
2022-12-27T12:00:37.808Z,9.93
2022-12-27T12:05:45.611Z,9.43
2022-12-27T12:10:50.588Z,9.95
2022-12-27T12:16:04.246Z,10.18
2022-12-27T12:21:19.531Z,8.93
2022-12-27T12:26:22.856Z,10.38
2022-12-27T12:31:33.119Z,10.48
2022-12-27T12:36:45.530Z,10.30
2022-12-27T12:41:57.097Z,8.57
2022-12-27T12:47:06.210Z,8.10
2022-12-27T12:52:16.355Z,7.45
2022-12-27T12:57:27.367Z,7.47
2022-12-27T13:02:38.694Z,6.13
2022-12-27T13:07:49.080Z,6.13
2022-12-27T13:12:55.560Z,4.85
2022-12-27T13:18:04.294Z,4.68
2022-12-27T13:23:11.414Z,4.68
2022-12-27T13:28:23.612Z,4.75
2022-12-27T13:33:31.674Z,4.38
2022-12-27T13:38:44.697Z,4.72
2022-12-27T13:43:52.626Z,4.93
2022-12-27T13:49:02.719Z,3.78
2022-12-27T13:54:20.287Z,4.10
2022-12-27T13:59:40.541Z,4.13
2022-12-27T14:04:54.637Z,4.35
2022-12-27T14:10:09.770Z,3.92
2022-12-27T14:15:14.751Z,4.47
2022-12-27T14:20:24.476Z,5.22
2022-12-27T14:25:45.593Z,5.43
2022-12-27T14:31:02.951Z,4.15
2022-12-27T14:36:20.273Z,4.90
2022-12-27T14:41:49.565Z,4.85
2022-12-27T14:47:14.333Z,4.40
2022-12-27T14:52:47.180Z,5.25
2022-12-27T14:57:53.794Z,4.95
2022-12-27T15:03:10.222Z,4.85
2022-12-27T15:08:28.004Z,5.28
2022-12-27T15:13:38.847Z,4.93
2022-12-27T15:18:54.717Z,4.78
2022-12-27T15:24:03.290Z,5.50
2022-12-27T15:29:17.810Z,5.60
2022-12-27T15:34:30.198Z,6.30
2022-12-27T15:39:51.236Z,5.50
2022-12-27T15:44:57.283Z,6.53
2022-12-27T15:50:14.660Z,5.65
2022-12-27T15:55:23.209Z,6.00
2022-12-27T16:00:33.673Z,6.45
2022-12-27T16:05:48.159Z,6.07
2022-12-27T16:10:52.665Z,5.32
2022-12-27T16:15:55.777Z,5.47
2022-12-27T16:20:59.271Z,4.78
2022-12-27T16:26:04.022Z,5.78
2022-12-27T16:31:07.675Z,5.25
2022-12-27T16:36:16.333Z,5.18
2022-12-27T16:41:26.969Z,4.88
2022-12-27T16:46:42.894Z,5.57
2022-12-27T16:51:55.364Z,4.80
2022-12-27T16:57:16.865Z,6.95
2022-12-27T17:02:39.883Z,5.95
2022-12-27T17:07:50.639Z,5.43
2022-12-27T17:12:54.630Z,4.63
2022-12-27T17:18:04.462Z,6.18
2022-12-27T17:23:07.002Z,9.02
2022-12-27T17:28:12.791Z,11.73
2022-12-27T17:33:22.159Z,5.70
2022-12-27T17:38:29.385Z,5.13
2022-12-27T17:43:54.603Z,6.18
2022-12-27T17:48:58.663Z,4.68
2022-12-27T17:54:18.563Z,5.15
2022-12-27T17:59:25.009Z,5.82
2022-12-27T18:04:29.603Z,5.50
2022-12-27T18:09:36.528Z,4.10
2022-12-27T18:14:38.947Z,5.80
2022-12-27T18:19:44.598Z,4.10
2022-12-27T18:24:48.071Z,3.80
2022-12-27T18:34:55.572Z,4.30
2022-12-27T18:40:00.178Z,3.92
2022-12-27T18:45:04.617Z,3.60
2022-12-27T18:50:16.533Z,3.55
2022-12-27T18:55:20.625Z,3.78
2022-12-27T19:00:25.725Z,3.85
2022-12-27T19:05:30.371Z,4.75
2022-12-27T19:10:33.549Z,4.72
2022-12-27T19:15:44.128Z,3.42
2022-12-27T19:20:51.741Z,3.75
2022-12-27T19:25:59.766Z,3.67
2022-12-27T19:31:16.215Z,3.67
2022-12-27T19:36:21.904Z,3.72
2022-12-27T19:41:26.209Z,3.90
2022-12-27T19:46:31.166Z,3.70
2022-12-27T19:51:36.205Z,3.90
2022-12-27T19:56:38.632Z,4.15
2022-12-27T20:01:41.089Z,4.05
2022-12-27T20:06:45.761Z,3.65
2022-12-27T20:11:49.537Z,3.70
2022-12-27T20:16:51.996Z,3.88
2022-12-27T20:21:55.813Z,3.53
2022-12-27T20:26:58.221Z,4.70
2022-12-27T20:32:00.693Z,3.92
2022-12-27T20:37:05.104Z,4.32
2022-12-27T20:42:07.516Z,4.22
2022-12-27T20:47:09.902Z,5.32
2022-12-27T20:52:13.649Z,4.30
2022-12-27T20:57:16.080Z,4.57
2022-12-27T21:02:18.677Z,4.53
2022-12-27T21:07:22.689Z,3.90
2022-12-27T21:12:25.389Z,3.80
2022-12-27T21:17:30.460Z,3.80
2022-12-27T21:22:34.215Z,4.00
2022-12-27T21:27:36.753Z,4.00
2022-12-27T21:32:39.131Z,3.80
2022-12-27T21:37:42.888Z,4.07
2022-12-27T21:42:45.287Z,4.13
2022-12-27T21:47:47.914Z,4.38
2022-12-27T21:52:51.677Z,4.73
2022-12-27T21:57:54.121Z,4.20
2022-12-27T22:02:56.748Z,3.95
2022-12-27T22:08:00.572Z,3.73
2022-12-27T22:13:03.034Z,3.67
2022-12-27T22:18:05.645Z,4.07
2022-12-27T22:23:09.378Z,4.07
2022-12-27T22:28:11.818Z,4.10
2022-12-27T22:33:15.242Z,4.35
2022-12-27T22:38:18.959Z,4.35
2022-12-27T22:43:21.363Z,4.15
2022-12-27T22:48:23.764Z,3.63
2022-12-27T22:53:27.468Z,3.72
2022-12-27T22:58:30.442Z,4.32
2022-12-27T23:03:32.794Z,3.88
2022-12-27T23:08:36.841Z,3.90
2022-12-27T23:13:39.561Z,3.88
2022-12-27T23:18:42.142Z,4.30
2022-12-27T23:23:46.047Z,3.93
2022-12-27T23:28:48.872Z,3.78
2022-12-27T23:33:51.730Z,5.03
2022-12-27T23:38:56.613Z,4.27
2022-12-27T23:44:00.733Z,4.22
2022-12-27T23:49:04.198Z,4.60
2022-12-27T23:59:10.363Z,4.45
